首页
METAR-TAF:

METAR-TAF

机场 :

Red Bluff Municipal Airport

Red Bluff, 加利福尼亚州, 美国

纬度: 40-09-02N, 经度: 122-15-08W, 海拔: 106米

当前天气观测

该预报发布于35分钟前的00:54 UTC
风速12节,风向,有时为27节阵风
温度 28°C
湿度 12%
气压 1013 hPa
能見度: 16.1公里
天空无云

METAR: KRBL 210054Z AUTO 35012G27KT 10SM CLR 28/M04 A2990 RMK AO2 PK WND 33029/0035 SLP123 T02781044 $

时间: 18:29 (01:29 UTC)

预报

该预报发布于2小时和9分钟前的23:20 UTC
预报有效从21日的 00点(UTC)到 21日的 24点(UTC)
风速18节,风向,有时为24节阵风
能見度: 10公里
天空无云
从 21日的 0300点(UTC)
风速12节,风向,有时为20节阵风
能見度: 10公里
天空无云
从 21日的 0700点(UTC)
风速12节,风向北转西北
能見度: 10公里
天空无云

TAF: KRBL 202320Z 2100/2124 35018G24KT P6SM SKC FM210300 35012G20KT P6SM SKC FM210700 34012KT P6SM SKC

超过4000个机场的气象观测和天气预报(METAR&TAF报告)。

可查询的气象台以黄色和红色小点在地图上表示。

将鼠标移到小点上方,可查看气象台名称。

然后点击查看天气观测和预报。

如需切换地图:点击带黑十字的绿色按钮放大地图;点击带横线的绿色按钮缩小地图;或者点击绿色箭头查看邻近地区的地图。


METAR-TAF: